Time;durP1;ratioP1;P1;durP2;ratioP2;P2;SDS_P1;SDS_P2;PMS_P1;PMS_P2;Temp;Humidity;BMP_temperature;BMP_pressure;BME280_temperature;BME280_humidity;BME280_pressure;Samples;Min_cycle;Max_cycle;Signal;HPM_P1;HPM_P2
2021/09/13 00:00:07;;;;;;;;;;;14.20;99.90;;;;;;5076217;28;19919;-73
2021/09/13 00:02:33;;;;;;;;;;;14.20;99.90;;;;;;5075325;28;19919;-73
2021/09/13 00:04:58;;;;;;;;;;;14.20;99.90;;;;;;5073784;28;20278;-73
2021/09/13 00:07:24;;;;;;;;;;;14.20;99.90;;;;;;5075384;28;19917;-73
2021/09/13 00:09:50;;;;;;;;;;;14.20;99.90;;;;;;5072946;28;19919;-73
2021/09/13 00:12:15;;;;;;;;;;;14.10;99.90;;;;;;5074529;28;20007;-74
2021/09/13 00:14:41;;;;;;;;;;;14.10;99.90;;;;;;5080636;28;19921;-73
2021/09/13 00:17:07;;;;;;;;;;;14.10;99.90;;;;;;5070381;28;19917;-73
2021/09/13 00:19:32;;;;;;;;;;;14.10;99.90;;;;;;5079105;28;20077;-73
2021/09/13 00:21:58;;;;;;;;;;;14.10;99.90;;;;;;5073899;28;19928;-73
2021/09/13 00:24:24;;;;;;;;;;;14.10;99.90;;;;;;5074376;28;20379;-73
2021/09/13 00:26:49;;;;;;;;;;;14.10;99.90;;;;;;5064856;28;19916;-73
2021/09/13 00:29:15;;;;;;;;;;;14.00;99.90;;;;;;5075163;28;20268;-73
2021/09/13 00:31:40;;;;;;;;;;;14.00;99.90;;;;;;5073891;28;19960;-73
2021/09/13 00:34:06;;;;;;;;;;;14.00;99.90;;;;;;5074047;28;19978;-73
2021/09/13 00:36:32;;;;;;;;;;;14.00;99.90;;;;;;5074362;28;19927;-73
2021/09/13 00:38:57;;;;;;;;;;;14.00;99.90;;;;;;5074238;28;19931;-73
2021/09/13 00:41:23;;;;;;;;;;;14.00;99.90;;;;;;5072783;28;20310;-73
2021/09/13 00:43:49;;;;;;;;;;;13.90;99.90;;;;;;5057517;28;19920;-73
2021/09/13 00:46:14;;;;;;;;;;;13.90;99.90;;;;;;5075161;28;19919;-73
2021/09/13 00:48:40;;;;;;;;;;;13.90;99.90;;;;;;5074062;28;19920;-73
2021/09/13 00:51:05;;;;;;;;;;;13.90;99.90;;;;;;5074496;28;20296;-73
2021/09/13 00:53:31;;;;;;;;;;;13.90;99.90;;;;;;5073589;28;20219;-73
2021/09/13 00:55:58;;;;;;;;;;;13.90;99.90;;;;;;5069870;28;19916;-73
2021/09/13 00:58:25;;;;;;;;;;;13.90;99.90;;;;;;5073672;28;19962;-73
2021/09/13 01:00:51;;;;;;;;;;;13.90;99.90;;;;;;5078050;28;19912;-73
2021/09/13 01:03:16;;;;;;;;;;;13.80;99.90;;;;;;5067733;28;20231;-73
2021/09/13 01:05:42;;;;;;;;;;;13.80;99.90;;;;;;5070030;28;19912;-73
2021/09/13 01:08:07;;;;;;;;;;;13.80;99.90;;;;;;5067262;28;19957;-73
2021/09/13 01:10:33;;;;;;;;;;;13.80;99.90;;;;;;5069630;28;19924;-73
2021/09/13 01:12:59;;;;;;;;;;;13.80;99.90;;;;;;5065889;28;20304;-73
2021/09/13 01:15:24;;;;;;;;;;;13.80;99.90;;;;;;5057909;28;19916;-73
2021/09/13 01:17:50;;;;;;;;;;;13.80;99.90;;;;;;5065016;28;20223;-73
2021/09/13 01:20:15;;;;;;;;;;;13.80;99.90;;;;;;5063429;28;19997;-73
2021/09/13 01:22:42;;;;;;;;;;;13.80;99.90;;;;;;5075518;28;20227;-77
2021/09/13 01:25:08;;;;;;;;;;;13.70;99.90;;;;;;5076008;28;19913;-73
2021/09/13 01:27:34;;;;;;;;;;;13.70;99.90;;;;;;5074266;28;19942;-73
2021/09/13 01:29:59;;;;;;;;;;;13.70;99.90;;;;;;5077509;28;20319;-73
2021/09/13 01:32:25;;;;;;;;;;;13.70;99.90;;;;;;5074165;28;19965;-73
2021/09/13 01:34:50;;;;;;;;;;;13.70;99.90;;;;;;5072206;28;19991;-73
2021/09/13 01:37:16;;;;;;;;;;;13.60;99.90;;;;;;5081930;28;20362;-73
2021/09/13 01:39:41;;;;;;;;;;;13.60;99.90;;;;;;5058748;28;19920;-73
2021/09/13 01:42:07;;;;;;;;;;;13.60;99.90;;;;;;5070316;28;19959;-73
2021/09/13 01:44:33;;;;;;;;;;;13.60;99.90;;;;;;5056143;28;19923;-73
2021/09/13 01:46:59;;;;;;;;;;;13.70;99.90;;;;;;5076949;28;19989;-73
2021/09/13 01:49:24;;;;;;;;;;;13.70;99.90;;;;;;5073729;28;19916;-75
2021/09/13 01:51:50;;;;;;;;;;;13.80;99.90;;;;;;5073086;28;19916;-77
2021/09/13 01:54:16;;;;;;;;;;;13.80;99.90;;;;;;5076920;28;19912;-73
2021/09/13 01:56:41;;;;;;;;;;;13.80;99.90;;;;;;5060849;28;19956;-73
2021/09/13 01:59:07;;;;;;;;;;;13.70;99.90;;;;;;5070067;28;20015;-73
2021/09/13 02:01:32;;;;;;;;;;;13.70;99.90;;;;;;5083482;28;19920;-73
2021/09/13 02:03:58;;;;;;;;;;;13.60;99.90;;;;;;5078011;28;19917;-73
2021/09/13 02:06:23;;;;;;;;;;;13.70;99.90;;;;;;5068658;28;19917;-73
2021/09/13 02:08:49;;;;;;;;;;;13.60;99.90;;;;;;5058424;28;19943;-73
2021/09/13 02:11:15;;;;;;;;;;;13.60;99.90;;;;;;5073603;28;19921;-73
2021/09/13 02:13:40;;;;;;;;;;;13.60;99.90;;;;;;5072751;28;19923;-73
2021/09/13 02:16:06;;;;;;;;;;;13.60;99.90;;;;;;5071076;28;19925;-74
2021/09/13 02:18:32;;;;;;;;;;;13.60;99.90;;;;;;5075695;28;19920;-73
2021/09/13 02:20:58;;;;;;;;;;;13.60;99.90;;;;;;5078259;28;19919;-73
2021/09/13 02:23:24;;;;;;;;;;;13.50;99.90;;;;;;5067651;28;19917;-73
2021/09/13 02:25:49;;;;;;;;;;;13.50;99.90;;;;;;5055107;28;19923;-73
2021/09/13 02:28:15;;;;;;;;;;;13.60;99.90;;;;;;5077649;28;19912;-73
2021/09/13 02:30:40;;;;;;;;;;;13.70;99.90;;;;;;5073782;28;19927;-72
2021/09/13 02:33:06;;;;;;;;;;;13.60;99.90;;;;;;5079033;28;19913;-73
2021/09/13 02:35:32;;;;;;;;;;;13.60;99.90;;;;;;5074710;28;19947;-73
2021/09/13 02:37:58;;;;;;;;;;;13.60;99.90;;;;;;5083468;28;20311;-73
2021/09/13 02:40:23;;;;;;;;;;;13.50;99.90;;;;;;5083160;28;19916;-73
2021/09/13 02:42:49;;;;;;;;;;;13.60;99.90;;;;;;5071039;28;19928;-72
2021/09/13 02:45:15;;;;;;;;;;;13.60;99.90;;;;;;5054101;28;20319;-77
2021/09/13 02:47:41;;;;;;;;;;;13.60;99.90;;;;;;5072532;28;19947;-73
2021/09/13 02:50:07;;;;;;;;;;;13.60;99.90;;;;;;5065754;28;19916;-73
2021/09/13 02:52:33;;;;;;;;;;;13.60;99.90;;;;;;5073392;28;19920;-72
2021/09/13 02:54:58;;;;;;;;;;;13.70;99.90;;;;;;5072797;28;19920;-73
2021/09/13 02:57:24;;;;;;;;;;;13.70;99.90;;;;;;5071444;28;19912;-73
2021/09/13 02:59:50;;;;;;;;;;;13.70;99.90;;;;;;5072741;28;19919;-73
2021/09/13 03:02:15;;;;;;;;;;;13.70;99.90;;;;;;5084435;28;21122;-73
2021/09/13 03:04:41;;;;;;;;;;;13.80;99.90;;;;;;5081789;28;19916;-72
2021/09/13 03:07:07;;;;;;;;;;;13.70;99.90;;;;;;5068887;28;19916;-73
2021/09/13 03:09:33;;;;;;;;;;;13.70;99.90;;;;;;5070906;28;19920;-73
2021/09/13 03:11:59;;;;;;;;;;;13.60;99.90;;;;;;5067205;28;19924;-73
2021/09/13 03:14:24;;;;;;;;;;;13.50;99.90;;;;;;5068986;28;20000;-73
2021/09/13 03:16:51;;;;;;;;;;;13.50;99.90;;;;;;5077213;28;19919;-73
2021/09/13 03:19:17;;;;;;;;;;;13.40;99.90;;;;;;5072791;28;20016;-72
2021/09/13 03:21:43;;;;;;;;;;;13.30;99.90;;;;;;5075671;28;19912;-73
2021/09/13 03:24:08;;;;;;;;;;;13.30;99.90;;;;;;5074588;28;20049;-73
2021/09/13 03:26:34;;;;;;;;;;;13.30;99.90;;;;;;5055999;28;19955;-73
2021/09/13 03:29:00;;;;;;;;;;;13.20;99.90;;;;;;5061338;28;20219;-74
2021/09/13 03:31:26;;;;;;;;;;;13.20;99.90;;;;;;5072208;28;19934;-73
2021/09/13 03:33:51;;;;;;;;;;;13.10;99.90;;;;;;5072548;28;20218;-73
2021/09/13 03:36:17;;;;;;;;;;;13.10;99.90;;;;;;5058685;28;19981;-73
2021/09/13 03:38:42;;;;;;;;;;;13.10;99.90;;;;;;5078019;28;19916;-73
2021/09/13 03:41:08;;;;;;;;;;;13.10;99.90;;;;;;5071875;28;19926;-73
2021/09/13 03:43:33;;;;;;;;;;;13.20;99.90;;;;;;5081156;28;19916;-72
2021/09/13 03:45:59;;;;;;;;;;;13.10;99.90;;;;;;5071062;28;19938;-72
2021/09/13 03:48:24;;;;;;;;;;;13.10;99.90;;;;;;5075002;28;19912;-73
2021/09/13 03:50:50;;;;;;;;;;;13.10;99.90;;;;;;5071136;28;19912;-73
2021/09/13 03:53:16;;;;;;;;;;;13.10;99.90;;;;;;5068759;28;19940;-73
2021/09/13 03:55:41;;;;;;;;;;;13.10;99.90;;;;;;5074633;28;19959;-73
2021/09/13 03:58:07;;;;;;;;;;;13.10;99.90;;;;;;5050805;28;19924;-73
2021/09/13 04:00:34;;;;;;;;;;;13.10;99.90;;;;;;5065896;28;19952;-73
2021/09/13 04:03:01;;;;;;;;;;;13.10;99.90;;;;;;5074406;28;19917;-73
2021/09/13 04:05:27;;;;;;;;;;;13.10;99.90;;;;;;5070178;28;20228;-73
2021/09/13 04:12:56;;;;;;;;;;;13.10;99.90;;;;;;5077803;28;19963;-73
2021/09/13 04:15:21;;;;;;;;;;;13.20;99.90;;;;;;5074712;28;20455;-73
2021/09/13 04:17:47;;;;;;;;;;;13.10;99.90;;;;;;5057411;28;19919;-73
2021/09/13 04:20:12;;;;;;;;;;;13.20;99.90;;;;;;5074535;28;19919;-73
2021/09/13 04:22:38;;;;;;;;;;;13.20;99.90;;;;;;5075072;28;19928;-73
2021/09/13 04:25:04;;;;;;;;;;;13.20;99.90;;;;;;5075077;28;19927;-73
2021/09/13 04:27:30;;;;;;;;;;;13.20;99.90;;;;;;5074113;28;19921;-73
2021/09/13 04:29:56;;;;;;;;;;;13.20;99.90;;;;;;5075618;28;20372;-73
2021/09/13 04:32:22;;;;;;;;;;;13.30;99.90;;;;;;5073457;28;20315;-73
2021/09/13 04:34:48;;;;;;;;;;;13.20;99.90;;;;;;5059922;28;19927;-73
2021/09/13 04:37:13;;;;;;;;;;;13.20;99.90;;;;;;5086175;28;20279;-73
2021/09/13 04:39:39;;;;;;;;;;;13.20;99.90;;;;;;5081870;28;19920;-73
2021/09/13 04:42:04;;;;;;;;;;;13.30;99.90;;;;;;5062196;28;19919;-73
2021/09/13 04:44:30;;;;;;;;;;;13.30;99.90;;;;;;5078990;28;20003;-73
2021/09/13 04:46:55;;;;;;;;;;;13.40;99.90;;;;;;5077825;28;19923;-73
2021/09/13 04:49:24;;;;;;;;;;;13.50;99.90;;;;;;5080543;28;20302;-73
2021/09/13 04:51:50;;;;;;;;;;;13.50;99.90;;;;;;5085540;28;20445;-73
2021/09/13 04:54:15;;;;;;;;;;;13.60;99.90;;;;;;5069233;28;20222;-73
2021/09/13 04:56:41;;;;;;;;;;;13.60;99.90;;;;;;5070466;28;19977;-73
2021/09/13 04:59:08;;;;;;;;;;;13.60;99.90;;;;;;5075779;28;19912;-73
2021/09/13 05:01:34;;;;;;;;;;;13.60;99.90;;;;;;5072005;28;19985;-73
2021/09/13 05:04:00;;;;;;;;;;;13.70;99.90;;;;;;5075225;28;20311;-73
2021/09/13 05:06:25;;;;;;;;;;;13.80;99.90;;;;;;5074543;28;20219;-74
2021/09/13 05:08:51;;;;;;;;;;;13.80;99.90;;;;;;5062023;28;19935;-74
2021/09/13 05:11:16;;;;;;;;;;;13.90;99.90;;;;;;5074159;28;20224;-74
2021/09/13 05:13:42;;;;;;;;;;;13.90;99.90;;;;;;5054971;28;20227;-76
2021/09/13 05:16:07;;;;;;;;;;;13.90;99.90;;;;;;5073726;28;19924;-74
2021/09/13 05:18:33;;;;;;;;;;;13.90;99.90;;;;;;5072869;28;20023;-74
2021/09/13 05:20:59;;;;;;;;;;;14.00;99.90;;;;;;5075113;28;19963;-74
2021/09/13 05:23:24;;;;;;;;;;;14.00;99.90;;;;;;5071738;28;19982;-74
2021/09/13 05:25:50;;;;;;;;;;;14.20;99.90;;;;;;5073881;28;19916;-73
2021/09/13 05:28:15;;;;;;;;;;;14.30;99.90;;;;;;5073077;28;19916;-73
2021/09/13 05:30:41;;;;;;;;;;;14.30;99.90;;;;;;5075211;28;19912;-73
2021/09/13 05:33:06;;;;;;;;;;;14.30;99.90;;;;;;5074368;28;20304;-74
2021/09/13 05:35:32;;;;;;;;;;;14.40;99.90;;;;;;5072614;28;19924;-74
2021/09/13 05:37:58;;;;;;;;;;;14.50;99.90;;;;;;5055473;28;19920;-73
2021/09/13 05:40:23;;;;;;;;;;;14.50;99.90;;;;;;5074201;28;20262;-74
2021/09/13 05:42:49;;;;;;;;;;;14.50;99.90;;;;;;5072630;28;19928;-74
2021/09/13 05:45:14;;;;;;;;;;;14.50;99.90;;;;;;5070221;28;19916;-73
2021/09/13 05:47:40;;;;;;;;;;;14.50;99.90;;;;;;5073820;28;19971;-74
2021/09/13 05:50:06;;;;;;;;;;;14.50;99.90;;;;;;5054761;28;19920;-74
2021/09/13 05:52:31;;;;;;;;;;;14.40;99.90;;;;;;5063463;28;20276;-74
2021/09/13 05:54:57;;;;;;;;;;;14.40;99.90;;;;;;5081917;28;19985;-74
2021/09/13 05:57:23;;;;;;;;;;;14.40;99.90;;;;;;5081279;28;19926;-74
2021/09/13 05:59:48;;;;;;;;;;;14.30;99.90;;;;;;5077851;28;19955;-73
2021/09/13 06:02:16;;;;;;;;;;;14.40;99.90;;;;;;5078285;28;19921;-73
2021/09/13 06:04:43;;;;;;;;;;;14.40;99.90;;;;;;5077613;28;19917;-74
2021/09/13 06:07:09;;;;;;;;;;;14.40;99.90;;;;;;5078040;28;19924;-73
2021/09/13 06:09:35;;;;;;;;;;;14.40;99.90;;;;;;5062875;28;20294;-74
2021/09/13 06:12:00;;;;;;;;;;;14.40;99.90;;;;;;5080040;28;19967;-73
2021/09/13 06:14:26;;;;;;;;;;;14.50;99.90;;;;;;5073581;28;19923;-73
2021/09/13 06:16:51;;;;;;;;;;;14.50;99.90;;;;;;5076759;28;20003;-73
2021/09/13 06:19:17;;;;;;;;;;;14.60;99.90;;;;;;5079033;28;19912;-73
2021/09/13 06:21:42;;;;;;;;;;;14.60;99.90;;;;;;5078759;28;19939;-73
2021/09/13 06:24:08;;;;;;;;;;;14.60;99.90;;;;;;5075844;28;19917;-73
2021/09/13 06:26:34;;;;;;;;;;;14.70;99.90;;;;;;5059729;28;19916;-74
2021/09/13 06:28:59;;;;;;;;;;;14.70;99.90;;;;;;5072508;28;20223;-73
2021/09/13 06:31:25;;;;;;;;;;;14.80;99.90;;;;;;5072493;28;20350;-73
2021/09/13 06:33:51;;;;;;;;;;;14.80;99.90;;;;;;5072916;28;20219;-74
2021/09/13 06:36:16;;;;;;;;;;;14.90;99.90;;;;;;5076857;28;19978;-73
2021/09/13 06:38:43;;;;;;;;;;;14.90;99.90;;;;;;5062047;28;19923;-73
2021/09/13 06:41:09;;;;;;;;;;;15.00;99.90;;;;;;5057396;28;19920;-73
2021/09/13 06:43:34;;;;;;;;;;;14.90;99.90;;;;;;5057772;28;19912;-74
2021/09/13 06:46:19;;;;;;;;;;;15.00;99.90;;;;;;5070609;28;19913;-73
2021/09/13 06:48:48;;;;;;;;;;;15.00;99.90;;;;;;5072215;28;19917;-74
2021/09/13 06:51:14;;;;;;;;;;;15.00;99.90;;;;;;5074820;28;20377;-73
2021/09/13 06:53:39;;;;;;;;;;;15.10;99.90;;;;;;5074350;28;20007;-73
2021/09/13 06:56:05;;;;;;;;;;;15.20;99.90;;;;;;5070736;28;19952;-73
2021/09/13 06:58:31;;;;;;;;;;;15.30;99.90;;;;;;5059058;28;20200;-73
2021/09/13 07:00:57;;;;;;;;;;;15.40;99.90;;;;;;5076827;28;19912;-73
2021/09/13 07:03:23;;;;;;;;;;;15.40;99.90;;;;;;5072799;28;19924;-73
2021/09/13 07:05:49;;;;;;;;;;;15.40;99.90;;;;;;5075135;28;19920;-73
2021/09/13 07:08:14;;;;;;;;;;;15.40;99.90;;;;;;5071408;28;19913;-73
2021/09/13 07:10:40;;;;;;;;;;;15.40;99.90;;;;;;5072279;28;19988;-74
2021/09/13 07:13:05;;;;;;;;;;;15.50;99.90;;;;;;5074677;28;19921;-74
2021/09/13 07:15:31;;;;;;;;;;;15.50;99.90;;;;;;5079668;28;19939;-74
2021/09/13 07:17:58;;;;;;;;;;;15.50;99.90;;;;;;5073732;28;19912;-73
2021/09/13 07:20:24;;;;;;;;;;;15.50;99.90;;;;;;5072903;28;19967;-74
2021/09/13 07:22:50;;;;;;;;;;;15.50;99.90;;;;;;5070697;28;19956;-74
2021/09/13 07:25:15;;;;;;;;;;;15.60;99.90;;;;;;5070504;28;19924;-73
2021/09/13 07:27:41;;;;;;;;;;;15.70;99.90;;;;;;5054224;28;19975;-73
2021/09/13 07:30:07;;;;;;;;;;;15.70;99.90;;;;;;5069247;28;19975;-73
2021/09/13 07:32:32;;;;;;;;;;;15.80;99.90;;;;;;5070590;28;19923;-74
2021/09/13 07:34:58;;;;;;;;;;;15.80;99.90;;;;;;5063718;28;19924;-73
2021/09/13 07:37:24;;;;;;;;;;;15.90;99.90;;;;;;5068128;28;19989;-74
2021/09/13 07:39:49;;;;;;;;;;;16.00;99.90;;;;;;5057920;28;19928;-74
2021/09/13 07:42:15;;;;;;;;;;;16.00;99.90;;;;;;5062168;28;19920;-74
2021/09/13 07:44:41;;;;;;;;;;;16.00;99.90;;;;;;5074059;28;19932;-74
2021/09/13 07:47:06;;;;;;;;;;;16.00;99.90;;;;;;5060461;28;20421;-74
2021/09/13 07:49:32;;;;;;;;;;;16.10;99.90;;;;;;5059129;28;20226;-74
2021/09/13 07:51:58;;;;;;;;;;;16.10;99.90;;;;;;5060541;28;19916;-74
2021/09/13 07:54:23;;;;;;;;;;;16.10;99.90;;;;;;5077290;28;19916;-74
2021/09/13 07:56:49;;;;;;;;;;;16.20;99.90;;;;;;5074482;28;20006;-73
2021/09/13 07:59:14;;;;;;;;;;;16.20;99.90;;;;;;5070339;28;19916;-74
2021/09/13 08:01:40;;;;;;;;;;;16.20;99.90;;;;;;5052241;28;19913;-74
2021/09/13 08:04:06;;;;;;;;;;;16.20;99.90;;;;;;5081760;28;19920;-74
2021/09/13 08:06:32;;;;;;;;;;;16.10;99.90;;;;;;5070309;28;19912;-74
2021/09/13 08:08:58;;;;;;;;;;;16.20;99.90;;;;;;5056927;28;19912;-74
2021/09/13 08:11:23;;;;;;;;;;;16.20;99.90;;;;;;5077673;28;19977;-75
2021/09/13 08:13:49;;;;;;;;;;;16.20;99.90;;;;;;5074408;28;20327;-74
2021/09/13 08:16:15;;;;;;;;;;;16.10;99.90;;;;;;5076860;28;19966;-75
2021/09/13 08:18:40;;;;;;;;;;;16.20;99.90;;;;;;5075389;28;19919;-74
2021/09/13 08:21:09;;;;;;;;;;;16.20;99.90;;;;;;5074301;28;19912;-74
2021/09/13 08:23:35;;;;;;;;;;;16.20;99.90;;;;;;5067237;28;19916;-74
2021/09/13 08:26:01;;;;;;;;;;;16.20;99.90;;;;;;5070968;28;19920;-74
2021/09/13 08:28:27;;;;;;;;;;;16.20;99.90;;;;;;5071961;28;19913;-75
2021/09/13 08:30:53;;;;;;;;;;;16.30;99.90;;;;;;5075420;28;19913;-75
2021/09/13 08:33:18;;;;;;;;;;;16.30;99.90;;;;;;5056425;28;20381;-75
2021/09/13 08:35:45;;;;;;;;;;;16.40;99.90;;;;;;5055937;28;19920;-74
2021/09/13 08:38:11;;;;;;;;;;;16.40;99.90;;;;;;5075685;28;19916;-74
2021/09/13 08:40:36;;;;;;;;;;;16.50;99.90;;;;;;5080490;28;19920;-75
2021/09/13 08:43:03;;;;;;;;;;;16.50;99.90;;;;;;5072200;28;19920;-75
2021/09/13 08:50:29;;;;;;;;;;;16.50;99.90;;;;;;5073225;28;19919;-75
2021/09/13 08:52:54;;;;;;;;;;;16.40;99.90;;;;;;5055065;28;19912;-74
2021/09/13 08:55:21;;;;;;;;;;;16.40;99.90;;;;;;5052385;28;20327;-75
2021/09/13 08:57:47;;;;;;;;;;;16.50;99.90;;;;;;5074072;28;19920;-75
2021/09/13 09:00:14;;;;;;;;;;;16.50;99.90;;;;;;5073509;28;20193;-75
2021/09/13 09:02:40;;;;;;;;;;;16.50;99.90;;;;;;5072727;28;19920;-75
2021/09/13 09:05:06;;;;;;;;;;;16.40;99.90;;;;;;5073489;28;20420;-74
2021/09/13 09:07:46;;;;;;;;;;;16.40;99.90;;;;;;5073062;28;20281;-75
2021/09/13 09:10:17;;;;;;;;;;;16.50;99.90;;;;;;5055205;28;20233;-75
2021/09/13 09:13:02;;;;;;;;;;;16.50;99.90;;;;;;5072262;28;19917;-75
2021/09/13 09:15:28;;;;;;;;;;;16.60;99.90;;;;;;5072534;28;19985;-75
2021/09/13 09:17:55;;;;;;;;;;;16.70;99.90;;;;;;5073679;28;19923;-75
2021/09/13 09:20:20;;;;;;;;;;;16.80;99.90;;;;;;5075021;28;19926;-76
2021/09/13 09:22:46;;;;;;;;;;;16.80;99.90;;;;;;5073833;28;19917;-75
2021/09/13 09:25:25;;;;;;;;;;;16.80;99.90;;;;;;5072072;28;20334;-75
2021/09/13 09:27:58;;;;;;;;;;;16.80;99.90;;;;;;5074024;28;20500;-75
2021/09/13 09:30:44;;;;;;;;;;;16.80;99.90;;;;;;5056206;28;19924;-75
2021/09/13 09:33:12;;;;;;;;;;;16.70;99.90;;;;;;5072139;28;20322;-75
2021/09/13 09:35:42;;;;;;;;;;;16.70;99.90;;;;;;5052200;28;19924;-75
2021/09/13 09:38:28;;;;;;;;;;;16.80;99.90;;;;;;5050848;28;21436;-75
2021/09/13 09:41:00;;;;;;;;;;;16.80;99.90;;;;;;5059603;28;19922;-75
2021/09/13 09:43:28;;;;;;;;;;;16.80;99.90;;;;;;5054322;28;20296;-75
2021/09/13 09:45:54;;;;;;;;;;;16.70;99.90;;;;;;5072025;28;20007;-75
2021/09/13 09:48:27;;;;;;;;;;;16.60;99.90;;;;;;5072118;28;19917;-75
2021/09/13 09:50:52;;;;;;;;;;;16.60;99.90;;;;;;5072772;28;19927;-74
2021/09/13 09:53:19;;;;;;;;;;;16.50;99.90;;;;;;5074579;28;20038;-75
2021/09/13 09:55:50;;;;;;;;;;;16.60;99.90;;;;;;5057671;28;19935;-75
2021/09/13 09:58:16;;;;;;;;;;;16.60;99.90;;;;;;5067297;28;20258;-75
2021/09/13 10:00:45;;;;;;;;;;;16.70;99.90;;;;;;5075920;28;20605;-75
2021/09/13 10:03:26;;;;;;;;;;;16.80;99.90;;;;;;5073206;28;19912;-75
2021/09/13 10:05:51;;;;;;;;;;;16.90;99.90;;;;;;5075655;28;19912;-75
2021/09/13 10:08:17;;;;;;;;;;;17.10;99.90;;;;;;5069045;28;19923;-75
2021/09/13 10:10:43;;;;;;;;;;;17.20;99.90;;;;;;5066930;28;19925;-74
2021/09/13 10:13:08;;;;;;;;;;;17.20;99.90;;;;;;5076501;28;19962;-76
2021/09/13 10:15:34;;;;;;;;;;;17.20;99.90;;;;;;5072580;28;19916;-75
2021/09/13 10:17:59;;;;;;;;;;;17.20;99.90;;;;;;5072884;28;19916;-75
2021/09/13 10:20:25;;;;;;;;;;;17.20;99.90;;;;;;5066535;28;20257;-75
2021/09/13 10:22:52;;;;;;;;;;;17.20;99.90;;;;;;5067962;28;20257;-75
2021/09/13 10:25:18;;;;;;;;;;;17.10;99.90;;;;;;5076661;28;19916;-75
2021/09/13 10:27:47;;;;;;;;;;;17.10;99.90;;;;;;5058975;28;19969;-75
2021/09/13 10:30:14;;;;;;;;;;;17.00;99.90;;;;;;5073513;28;19916;-75
2021/09/13 10:32:42;;;;;;;;;;;17.00;99.90;;;;;;5066060;28;19926;-76
2021/09/13 10:35:09;;;;;;;;;;;16.90;99.90;;;;;;5066783;28;20032;-75
2021/09/13 10:37:41;;;;;;;;;;;17.00;99.90;;;;;;5073665;28;19913;-75
2021/09/13 10:40:07;;;;;;;;;;;17.00;99.90;;;;;;5076383;28;20070;-75
2021/09/13 10:42:36;;;;;;;;;;;17.00;99.90;;;;;;5056795;28;20366;-75
2021/09/13 10:45:01;;;;;;;;;;;17.00;99.90;;;;;;5074705;28;19913;-75
2021/09/13 10:47:27;;;;;;;;;;;17.10;99.90;;;;;;5061572;28;19920;-75
2021/09/13 10:50:13;;;;;;;;;;;17.10;99.90;;;;;;5058586;28;19924;-75
2021/09/13 10:52:39;;;;;;;;;;;17.10;99.90;;;;;;5072956;28;19939;-75
2021/09/13 10:55:07;;;;;;;;;;;17.30;99.90;;;;;;5077501;28;20304;-76
2021/09/13 10:57:51;;;;;;;;;;;17.30;99.90;;;;;;5077226;28;19916;-75
2021/09/13 11:00:43;;;;;;;;;;;17.30;99.90;;;;;;5064562;28;19920;-75
2021/09/13 11:06:24;;;;;;;;;;;17.50;99.90;;;;;;4988938;28;19922;-75
2021/09/13 11:08:51;;;;;;;;;;;17.50;99.90;;;;;;4989728;28;19929;-75
2021/09/13 11:11:18;;;;;;;;;;;17.50;99.90;;;;;;4989753;28;20317;-75
2021/09/13 11:13:44;;;;;;;;;;;17.50;99.90;;;;;;4973499;28;19924;-75
2021/09/13 11:16:14;;;;;;;;;;;17.50;99.90;;;;;;4973219;28;19965;-75
2021/09/13 11:18:43;;;;;;;;;;;17.50;99.90;;;;;;4990304;28;19929;-75
2021/09/13 11:21:18;;;;;;;;;;;17.50;99.90;;;;;;4989877;28;19937;-76
2021/09/13 11:23:45;;;;;;;;;;;17.50;99.90;;;;;;4974444;28;19917;-75
2021/09/13 11:26:10;;;;;;;;;;;17.50;99.90;;;;;;4989578;28;19928;-75
2021/09/13 11:28:55;;;;;;;;;;;17.40;99.90;;;;;;4990524;28;19914;-80
2021/09/13 11:31:30;;;;;;;;;;;17.40;99.90;;;;;;4972494;28;19972;-75
2021/09/13 11:33:57;;;;;;;;;;;17.50;99.90;;;;;;4989248;28;19922;-75
2021/09/13 11:36:23;;;;;;;;;;;17.40;99.90;;;;;;4989536;28;19922;-75
2021/09/13 11:38:56;;;;;;;;;;;17.40;99.90;;;;;;4974256;28;19945;-75
2021/09/13 11:41:21;;;;;;;;;;;17.50;99.90;;;;;;5070160;28;19916;-75
2021/09/13 11:44:04;;;;;;;;;;;17.40;99.90;;;;;;5071422;28;19966;-75
2021/09/13 11:46:30;;;;;;;;;;;17.50;99.90;;;;;;5052811;28;20318;-75
2021/09/13 11:49:34;;;;;;;;;;;17.50;99.90;;;;;;5072823;28;19920;-75
2021/09/13 11:52:19;;;;;;;;;;;17.40;99.90;;;;;;4988565;28;20040;-75
2021/09/13 11:54:51;;;;;;;;;;;17.50;99.90;;;;;;4985064;28;19918;-75
2021/09/13 11:57:23;;;;;;;;;;;17.60;99.90;;;;;;4985255;28;19922;-77
2021/09/13 11:59:53;;;;;;;;;;;17.60;99.90;;;;;;4985879;28;19922;-75
2021/09/13 12:02:19;;;;;;;;;;;17.60;99.90;;;;;;4973300;28;19945;-76
2021/09/13 12:04:44;;;;;;;;;;;17.60;99.90;;;;;;4979888;28;20596;-76
2021/09/13 12:07:11;;;;;;;;;;;17.60;99.90;;;;;;4979220;28;19953;-75
2021/09/13 12:09:37;;;;;;;;;;;17.60;99.90;;;;;;4974685;28;19956;-75
2021/09/13 12:12:03;;;;;;;;;;;17.60;99.90;;;;;;4984130;28;19914;-76
2021/09/13 12:14:29;;;;;;;;;;;17.60;99.90;;;;;;4981077;28;19932;-76
2021/09/13 12:17:08;;;;;;;;;;;17.70;99.90;;;;;;4976850;28;20025;-75
2021/09/13 12:19:34;;;;;;;;;;;17.80;99.90;;;;;;4972491;28;19959;-75
2021/09/13 12:22:01;;;;;;;;;;;17.80;99.90;;;;;;4994422;28;19976;-75
2021/09/13 12:24:26;;;;;;;;;;;17.80;99.90;;;;;;5064733;28;19916;-75
2021/09/13 12:26:52;;;;;;;;;;;17.80;99.90;;;;;;5074595;28;19912;-75
2021/09/13 12:29:17;;;;;;;;;;;17.90;99.90;;;;;;5075320;28;19912;-75
2021/09/13 12:31:43;;;;;;;;;;;17.80;99.90;;;;;;5073545;28;19923;-76
2021/09/13 12:34:08;;;;;;;;;;;17.90;99.90;;;;;;5067174;28;19921;-76
2021/09/13 12:36:34;;;;;;;;;;;17.90;99.90;;;;;;5075421;28;20508;-75
2021/09/13 12:39:06;;;;;;;;;;;17.80;99.90;;;;;;5073902;28;19913;-75
2021/09/13 12:41:36;;;;;;;;;;;17.80;99.90;;;;;;5055289;28;19965;-75
2021/09/13 12:44:20;;;;;;;;;;;17.90;99.90;;;;;;5071580;28;20007;-75
2021/09/13 12:46:52;;;;;;;;;;;18.00;99.90;;;;;;5053843;28;19967;-75
2021/09/13 12:49:17;;;;;;;;;;;18.00;99.90;;;;;;5071476;28;19965;-75
2021/09/13 12:51:55;;;;;;;;;;;18.00;99.90;;;;;;5069717;28;19916;-76
2021/09/13 12:54:31;;;;;;;;;;;18.10;99.90;;;;;;5051177;28;19923;-75
2021/09/13 12:56:57;;;;;;;;;;;18.10;99.90;;;;;;5067359;28;19955;-75
2021/09/13 12:59:23;;;;;;;;;;;18.10;99.90;;;;;;5072308;28;20009;-75
2021/09/13 13:01:50;;;;;;;;;;;18.10;99.90;;;;;;5055014;28;20315;-76
2021/09/13 13:04:17;;;;;;;;;;;18.10;99.90;;;;;;5066114;28;19919;-75
2021/09/13 13:06:43;;;;;;;;;;;18.10;99.90;;;;;;5073187;28;20362;-75
2021/09/13 13:09:12;;;;;;;;;;;18.20;99.90;;;;;;5052497;28;19924;-76
2021/09/13 13:11:39;;;;;;;;;;;18.20;99.90;;;;;;5055798;28;19916;-76
2021/09/13 13:14:06;;;;;;;;;;;18.30;99.90;;;;;;5074431;28;19914;-75
2021/09/13 13:16:42;;;;;;;;;;;18.30;99.90;;;;;;5073071;28;19939;-75
2021/09/13 13:19:08;;;;;;;;;;;18.30;99.90;;;;;;5061033;28;19920;-75
2021/09/13 13:21:34;;;;;;;;;;;18.40;99.90;;;;;;5054720;28;19916;-76
2021/09/13 13:23:59;;;;;;;;;;;18.40;99.90;;;;;;5069469;28;19923;-75
2021/09/13 13:26:25;;;;;;;;;;;18.40;99.90;;;;;;5072904;28;20381;-76
2021/09/13 13:28:51;;;;;;;;;;;18.40;99.90;;;;;;5071475;28;20011;-76
2021/09/13 13:31:16;;;;;;;;;;;18.30;99.90;;;;;;5067526;28;19943;-75
2021/09/13 13:33:42;;;;;;;;;;;18.40;99.90;;;;;;5068998;28;19916;-75
2021/09/13 13:36:08;;;;;;;;;;;18.30;99.90;;;;;;5067736;28;19920;-76
2021/09/13 13:38:34;;;;;;;;;;;18.30;99.90;;;;;;5065580;28;20573;-76
2021/09/13 13:40:59;;;;;;;;;;;18.30;99.90;;;;;;5066946;28;19994;-75
2021/09/13 13:43:25;;;;;;;;;;;18.40;99.90;;;;;;5048164;28;19916;-76
2021/09/13 13:45:51;;;;;;;;;;;18.30;99.90;;;;;;5048556;28;19932;-75
2021/09/13 13:48:18;;;;;;;;;;;18.30;99.90;;;;;;5066419;28;19921;-76
2021/09/13 13:50:43;;;;;;;;;;;18.30;99.90;;;;;;5065671;28;19921;-75
2021/09/13 13:53:09;;;;;;;;;;;18.30;99.90;;;;;;5063449;28;20444;-76
2021/09/13 13:55:35;;;;;;;;;;;18.30;99.90;;;;;;5069021;28;19947;-75
2021/09/13 13:58:00;;;;;;;;;;;18.40;99.90;;;;;;5069799;28;19920;-75
2021/09/13 14:00:26;;;;;;;;;;;18.40;99.90;;;;;;5069319;28;20295;-76
2021/09/13 14:02:51;;;;;;;;;;;18.40;99.90;;;;;;5068392;28;20039;-75
2021/09/13 14:05:17;;;;;;;;;;;18.50;99.90;;;;;;5064919;28;19920;-76
2021/09/13 14:07:44;;;;;;;;;;;18.50;99.90;;;;;;5063397;28;19916;-75
2021/09/13 14:10:10;;;;;;;;;;;18.50;99.90;;;;;;5069553;28;19923;-76
2021/09/13 14:12:36;;;;;;;;;;;18.50;99.90;;;;;;5066946;28;20250;-76
2021/09/13 14:15:03;;;;;;;;;;;18.50;99.90;;;;;;5069594;28;20311;-75
2021/09/13 14:17:30;;;;;;;;;;;18.50;99.90;;;;;;5051509;28;19946;-76
2021/09/13 14:19:55;;;;;;;;;;;18.60;99.90;;;;;;5070066;28;20239;-76
2021/09/13 14:22:21;;;;;;;;;;;18.50;99.90;;;;;;5056860;28;19920;-76
2021/09/13 14:24:46;;;;;;;;;;;18.60;99.90;;;;;;5049732;28;19920;-75
2021/09/13 14:27:12;;;;;;;;;;;18.60;99.90;;;;;;5072962;28;19952;-76